createdAt,value
2022-12-26T00:01:11.953Z,9.93
2022-12-26T00:03:40.323Z,12.83
2022-12-26T00:06:14.869Z,9.30
2022-12-26T00:08:42.981Z,14.67
2022-12-26T00:11:11.220Z,10.40
2022-12-26T00:13:41.612Z,10.83
2022-12-26T00:16:11.840Z,12.33
2022-12-26T00:18:40.078Z,11.93
2022-12-26T00:21:08.732Z,10.70
2022-12-26T00:23:38.716Z,11.27
2022-12-26T00:26:08.269Z,10.00
2022-12-26T00:28:36.503Z,8.30
2022-12-26T00:31:05.649Z,7.03
2022-12-26T00:33:35.439Z,8.03
2022-12-26T00:36:04.159Z,8.60
2022-12-26T00:38:32.553Z,8.53
2022-12-26T00:41:01.855Z,13.73
2022-12-26T00:43:29.725Z,7.83
2022-12-26T00:45:59.174Z,9.23
2022-12-26T00:48:27.455Z,11.00
2022-12-26T00:50:55.831Z,11.90
2022-12-26T00:53:24.444Z,8.53
2022-12-26T00:55:53.016Z,9.20
2022-12-26T00:58:23.165Z,12.17
2022-12-26T01:00:51.802Z,9.30
2022-12-26T01:03:20.504Z,9.60
2022-12-26T01:05:51.020Z,8.50
2022-12-26T01:08:24.622Z,9.80
2022-12-26T01:10:53.662Z,9.43
2022-12-26T01:13:22.912Z,11.43
2022-12-26T01:15:51.841Z,9.53
2022-12-26T01:18:19.903Z,12.37
2022-12-26T01:20:48.673Z,15.23
2022-12-26T01:23:17.624Z,10.23
2022-12-26T01:26:18.455Z,10.80
2022-12-26T01:28:34.879Z,10.17
2022-12-26T01:31:03.661Z,10.33
2022-12-26T01:33:31.982Z,10.97
2022-12-26T01:36:00.720Z,12.00
2022-12-26T01:38:28.965Z,10.70
2022-12-26T01:41:10.850Z,10.37
2022-12-26T01:44:01.441Z,10.07
2022-12-26T01:46:34.791Z,9.90
2022-12-26T01:49:08.765Z,10.03
2022-12-26T01:51:41.305Z,12.90
2022-12-26T01:54:39.365Z,11.47
2022-12-26T01:57:03.994Z,12.53
2022-12-26T01:59:40.826Z,15.60
2022-12-26T02:02:10.086Z,14.90
2022-12-26T02:05:02.499Z,9.63
2022-12-26T02:07:30.443Z,10.03
2022-12-26T02:09:58.395Z,11.70
2022-12-26T02:12:37.361Z,16.73
2022-12-26T02:15:12.059Z,13.57
2022-12-26T02:17:40.930Z,12.20
2022-12-26T02:20:18.365Z,9.00
2022-12-26T02:23:32.343Z,11.93
2022-12-26T02:26:38.761Z,11.73
2022-12-26T02:29:36.749Z,9.23
2022-12-26T02:32:12.832Z,14.13
2022-12-26T02:34:51.025Z,12.70
2022-12-26T02:37:29.309Z,10.67
2022-12-26T02:40:17.741Z,12.30
2022-12-26T02:42:58.996Z,10.13
2022-12-26T02:45:52.393Z,11.00
2022-12-26T02:48:31.213Z,12.90
2022-12-26T02:51:28.048Z,14.87
2022-12-26T02:54:24.724Z,16.03
2022-12-26T02:57:14.147Z,12.50
2022-12-26T03:00:08.600Z,11.17
2022-12-26T03:02:59.249Z,12.93
2022-12-26T03:05:51.996Z,11.60
2022-12-26T03:08:43.862Z,14.13
2022-12-26T03:11:29.156Z,11.93
2022-12-26T03:14:06.527Z,13.40
2022-12-26T03:16:53.020Z,15.97
2022-12-26T03:19:22.753Z,11.67
2022-12-26T03:21:52.917Z,17.87
2022-12-26T03:24:23.510Z,15.40
2022-12-26T03:26:54.108Z,12.17
2022-12-26T03:29:42.034Z,13.13
2022-12-26T03:32:12.883Z,14.60
2022-12-26T03:34:44.341Z,11.67
2022-12-26T03:37:48.305Z,13.97
2022-12-26T03:40:47.286Z,12.30
2022-12-26T03:43:44.098Z,13.13
2022-12-26T03:46:41.070Z,16.83
2022-12-26T03:49:35.268Z,15.60
2022-12-26T03:52:25.003Z,14.83
2022-12-26T03:55:21.323Z,14.60
2022-12-26T03:58:12.969Z,14.57
2022-12-26T04:01:00.874Z,14.47
2022-12-26T04:03:50.481Z,13.27
2022-12-26T04:06:40.252Z,13.20
2022-12-26T04:09:30.978Z,13.97
2022-12-26T04:12:20.881Z,12.37
2022-12-26T04:15:11.166Z,20.23
2022-12-26T04:18:01.344Z,14.30
2022-12-26T04:20:36.300Z,12.57
2022-12-26T04:23:25.819Z,17.10
2022-12-26T04:26:17.668Z,15.10
2022-12-26T04:29:04.285Z,14.90
2022-12-26T04:31:55.323Z,15.40
2022-12-26T04:34:49.105Z,11.70
2022-12-26T04:37:40.546Z,15.03
2022-12-26T04:40:32.391Z,17.57
2022-12-26T04:43:49.903Z,14.03
2022-12-26T04:46:08.194Z,11.17
2022-12-26T04:49:01.999Z,13.30
2022-12-26T04:51:30.334Z,15.10
2022-12-26T04:53:58.237Z,18.10
2022-12-26T04:56:26.253Z,17.03
2022-12-26T04:58:54.169Z,12.40
2022-12-26T05:01:40.949Z,17.30
2022-12-26T05:04:33.446Z,13.30
2022-12-26T05:07:20.812Z,14.83
2022-12-26T05:09:51.087Z,18.17
2022-12-26T05:12:19.282Z,17.37
2022-12-26T05:14:47.160Z,16.50
2022-12-26T05:17:34.161Z,14.27
2022-12-26T05:20:19.605Z,12.20
2022-12-26T05:23:05.300Z,12.83
2022-12-26T05:25:53.480Z,14.93
2022-12-26T05:28:39.302Z,14.90
2022-12-26T05:31:07.494Z,13.80
2022-12-26T05:33:54.169Z,17.63
2022-12-26T05:36:24.286Z,15.73
2022-12-26T05:38:52.470Z,17.70
2022-12-26T05:41:20.669Z,14.50
2022-12-26T05:43:48.569Z,16.10
2022-12-26T05:46:16.481Z,26.70
2022-12-26T05:48:45.817Z,29.07
2022-12-26T05:51:13.766Z,38.73
2022-12-26T05:53:41.963Z,42.07
2022-12-26T05:56:13.828Z,54.00
2022-12-26T05:58:42.207Z,66.70
2022-12-26T06:01:13.487Z,60.17
2022-12-26T06:03:43.377Z,103.70
2022-12-26T06:06:12.728Z,92.43
2022-12-26T06:08:42.056Z,51.93
2022-12-26T06:11:11.678Z,26.30
2022-12-26T06:13:40.803Z,15.73
2022-12-26T06:16:10.790Z,18.37
2022-12-26T06:18:39.157Z,19.40
2022-12-26T06:21:08.829Z,21.83
2022-12-26T06:23:38.826Z,15.93
2022-12-26T06:26:09.055Z,19.17
2022-12-26T06:28:37.840Z,16.43
2022-12-26T06:31:07.282Z,23.07
2022-12-26T06:33:35.569Z,23.00
2022-12-26T06:36:05.698Z,20.23
2022-12-26T06:38:33.982Z,22.77
2022-12-26T06:41:05.697Z,20.80
2022-12-26T06:43:33.558Z,20.70
2022-12-26T06:46:03.163Z,24.50
2022-12-26T06:48:33.253Z,32.87
2022-12-26T06:51:05.594Z,27.77
2022-12-26T06:53:35.167Z,38.17
2022-12-26T06:56:08.841Z,33.77
2022-12-26T06:58:37.041Z,24.70
2022-12-26T07:01:06.168Z,23.93
2022-12-26T07:03:34.157Z,19.67
2022-12-26T07:06:04.886Z,14.50
2022-12-26T07:08:33.309Z,17.47
2022-12-26T07:11:02.076Z,15.97
2022-12-26T07:13:31.352Z,19.17
2022-12-26T07:16:00.188Z,17.93
2022-12-26T07:18:28.067Z,19.27
2022-12-26T07:20:55.912Z,17.77
2022-12-26T07:23:23.783Z,14.57
2022-12-26T07:25:51.566Z,15.90
2022-12-26T07:28:19.446Z,18.60
2022-12-26T07:30:50.745Z,23.80
2022-12-26T07:33:19.758Z,20.50
2022-12-26T07:35:47.725Z,22.63
2022-12-26T07:38:15.574Z,20.73
2022-12-26T07:40:43.443Z,21.90
2022-12-26T07:43:11.536Z,21.00
2022-12-26T07:45:45.240Z,22.10
2022-12-26T07:48:15.161Z,21.70
2022-12-26T07:50:47.026Z,19.43
2022-12-26T07:53:15.502Z,24.27
2022-12-26T07:55:43.601Z,22.30
2022-12-26T07:58:11.505Z,22.47
2022-12-26T08:00:39.592Z,21.20
2022-12-26T08:03:08.463Z,18.33
2022-12-26T08:05:37.899Z,17.23
2022-12-26T08:08:08.130Z,18.73
2022-12-26T08:10:36.036Z,21.47
2022-12-26T08:13:03.956Z,22.37
2022-12-26T08:15:31.775Z,17.90
2022-12-26T08:17:59.587Z,19.90
2022-12-26T08:20:28.646Z,21.10
2022-12-26T08:25:30.819Z,25.50
2022-12-26T08:27:58.690Z,24.70
2022-12-26T08:30:26.646Z,21.37
2022-12-26T08:32:54.635Z,20.60
2022-12-26T08:35:22.583Z,22.17
2022-12-26T08:37:50.361Z,16.90
2022-12-26T08:40:40.011Z,24.20
2022-12-26T08:43:53.243Z,19.33
2022-12-26T08:46:00.007Z,22.90
2022-12-26T08:48:28.521Z,19.30
2022-12-26T08:50:57.949Z,25.80
2022-12-26T08:53:26.337Z,20.90
2022-12-26T08:55:55.846Z,18.50
2022-12-26T08:58:23.722Z,22.13
2022-12-26T09:00:55.408Z,18.87
2022-12-26T09:03:23.857Z,19.87
2022-12-26T09:05:53.535Z,23.37
2022-12-26T09:08:21.391Z,21.87
2022-12-26T09:10:49.256Z,24.57
2022-12-26T09:13:20.928Z,26.20
2022-12-26T09:15:48.751Z,24.57
2022-12-26T09:18:16.647Z,24.20
2022-12-26T09:20:44.552Z,21.13
2022-12-26T09:23:12.542Z,22.70
2022-12-26T09:25:40.557Z,23.07
2022-12-26T09:28:09.343Z,28.60
2022-12-26T09:30:39.310Z,22.57
2022-12-26T09:33:08.259Z,23.60
2022-12-26T09:35:36.175Z,20.70
2022-12-26T09:38:04.050Z,20.77
2022-12-26T09:40:44.205Z,23.20
2022-12-26T09:43:22.328Z,24.10
2022-12-26T09:46:05.901Z,21.67
2022-12-26T09:48:40.511Z,18.90
2022-12-26T09:51:10.987Z,25.60
2022-12-26T09:53:44.097Z,22.83
2022-12-26T09:56:36.921Z,26.03
2022-12-26T09:59:08.643Z,20.17
2022-12-26T10:01:38.410Z,22.10
2022-12-26T10:04:28.421Z,25.33
2022-12-26T10:07:11.642Z,25.70
2022-12-26T10:09:59.477Z,21.17
2022-12-26T10:12:37.388Z,23.23
2022-12-26T10:15:16.095Z,36.30
2022-12-26T10:17:50.917Z,30.23
2022-12-26T10:20:25.565Z,31.40
2022-12-26T10:23:16.163Z,26.13
2022-12-26T10:25:48.115Z,22.83
2022-12-26T10:28:21.448Z,27.37
2022-12-26T10:30:51.627Z,31.27
2022-12-26T10:33:36.400Z,27.40
2022-12-26T10:36:04.729Z,26.00
2022-12-26T10:38:38.887Z,27.47
2022-12-26T10:41:12.449Z,26.80
2022-12-26T10:43:44.847Z,26.40
2022-12-26T10:46:45.840Z,24.23
2022-12-26T10:49:18.082Z,23.87
2022-12-26T10:51:46.382Z,24.33
2022-12-26T10:54:17.978Z,22.23
2022-12-26T10:56:48.351Z,24.23
2022-12-26T10:59:20.001Z,26.83
2022-12-26T11:01:48.666Z,24.77
2022-12-26T11:04:44.532Z,23.40
2022-12-26T11:07:12.498Z,21.07
2022-12-26T11:09:43.992Z,19.93
2022-12-26T11:12:21.800Z,21.50
2022-12-26T11:14:50.199Z,22.47
2022-12-26T11:17:28.015Z,25.97
2022-12-26T11:20:22.312Z,27.37
2022-12-26T11:22:50.575Z,21.97
2022-12-26T11:25:21.452Z,23.67
2022-12-26T11:27:51.281Z,22.50
2022-12-26T11:30:29.466Z,25.60
2022-12-26T11:33:14.907Z,23.90
2022-12-26T11:35:51.306Z,22.97
2022-12-26T11:38:44.084Z,20.63
2022-12-26T11:41:39.467Z,23.33
2022-12-26T11:44:18.531Z,23.07
2022-12-26T11:46:49.996Z,20.20
2022-12-26T11:49:21.995Z,21.37
2022-12-26T11:51:58.478Z,21.70
2022-12-26T11:54:34.246Z,33.80
2022-12-26T11:57:10.192Z,23.47
2022-12-26T11:59:38.453Z,19.67
2022-12-26T12:02:27.895Z,24.47
2022-12-26T12:05:00.671Z,22.30
2022-12-26T12:08:07.014Z,21.07
2022-12-26T12:10:49.484Z,32.73
2022-12-26T12:13:44.132Z,31.50
2022-12-26T12:16:32.338Z,24.87
2022-12-26T12:19:14.362Z,25.20
2022-12-26T12:21:45.895Z,24.90
2022-12-26T12:24:34.282Z,26.90
2022-12-26T12:27:12.778Z,27.50
2022-12-26T12:29:54.056Z,27.17
2022-12-26T12:32:30.014Z,27.43
2022-12-26T12:35:16.446Z,25.60
2022-12-26T12:37:57.706Z,26.93
2022-12-26T12:40:33.058Z,27.53
2022-12-26T12:43:11.945Z,19.83
2022-12-26T12:45:49.229Z,22.20
2022-12-26T12:48:32.663Z,26.57
2022-12-26T12:51:11.026Z,24.97
2022-12-26T12:53:58.275Z,23.30
2022-12-26T12:56:35.803Z,24.43
2022-12-26T12:59:23.988Z,27.10
2022-12-26T13:01:56.473Z,23.53
2022-12-26T13:04:29.554Z,30.40
2022-12-26T13:07:00.759Z,24.07
2022-12-26T13:09:31.673Z,26.57
2022-12-26T13:12:03.498Z,32.10
2022-12-26T13:14:38.446Z,26.67
2022-12-26T13:17:11.006Z,27.90
2022-12-26T13:19:48.664Z,29.00
2022-12-26T13:22:26.903Z,27.57
2022-12-26T13:24:59.957Z,25.50
2022-12-26T13:27:31.784Z,26.00
2022-12-26T13:30:01.068Z,26.87
2022-12-26T13:32:31.306Z,27.00
2022-12-26T13:35:01.820Z,30.20
2022-12-26T13:37:56.498Z,30.63
2022-12-26T13:40:28.783Z,32.67
2022-12-26T13:43:19.449Z,25.63
2022-12-26T13:45:52.631Z,25.13
2022-12-26T13:48:56.905Z,25.63
2022-12-26T13:51:46.598Z,27.30
2022-12-26T13:54:16.245Z,32.67
2022-12-26T13:57:26.727Z,31.63
2022-12-26T14:00:07.035Z,28.00
2022-12-26T14:03:20.447Z,28.70
2022-12-26T14:06:13.295Z,27.03
2022-12-26T14:08:54.698Z,25.60
2022-12-26T14:11:38.373Z,27.03
2022-12-26T14:14:17.394Z,23.80
2022-12-26T14:16:51.926Z,26.60
2022-12-26T14:19:36.344Z,32.47
2022-12-26T14:22:12.293Z,29.47
2022-12-26T14:24:55.626Z,32.93
2022-12-26T14:27:34.048Z,29.70
2022-12-26T14:30:18.936Z,29.87
2022-12-26T14:33:01.672Z,30.60
2022-12-26T14:35:35.064Z,28.73
2022-12-26T14:38:18.870Z,28.87
2022-12-26T14:41:01.353Z,31.97
2022-12-26T14:43:36.985Z,27.73
2022-12-26T14:46:10.755Z,33.30
2022-12-26T14:48:55.891Z,41.93
2022-12-26T14:51:42.880Z,27.80
2022-12-26T14:54:32.030Z,26.90
2022-12-26T14:57:00.517Z,41.77
2022-12-26T14:59:31.268Z,31.33
2022-12-26T15:02:10.467Z,30.13
2022-12-26T15:04:53.764Z,29.30
2022-12-26T15:08:09.779Z,29.90
2022-12-26T15:11:22.985Z,30.37
2022-12-26T15:14:41.309Z,32.60
2022-12-26T15:17:22.123Z,31.10
2022-12-26T15:20:32.495Z,32.77
2022-12-26T15:23:30.377Z,31.37
2022-12-26T15:26:19.911Z,34.57
2022-12-26T15:29:19.193Z,31.53
2022-12-26T15:31:59.857Z,33.80
2022-12-26T15:34:45.738Z,36.70
2022-12-26T15:37:25.171Z,36.90
2022-12-26T15:40:02.394Z,35.80
2022-12-26T15:42:43.569Z,32.90
2022-12-26T15:45:30.642Z,33.30
2022-12-26T15:48:05.169Z,34.93
2022-12-26T15:50:45.773Z,32.47
2022-12-26T15:53:25.762Z,28.93
2022-12-26T15:56:05.486Z,32.03
2022-12-26T15:58:53.756Z,30.93
2022-12-26T16:01:38.123Z,31.40
2022-12-26T16:04:13.487Z,32.97
2022-12-26T16:06:54.552Z,41.07
2022-12-26T16:09:37.627Z,37.90
2022-12-26T16:12:21.904Z,30.73
2022-12-26T16:14:50.772Z,35.73
2022-12-26T16:17:22.177Z,32.00
2022-12-26T16:19:51.672Z,34.47
2022-12-26T16:22:46.460Z,38.70
2022-12-26T16:25:18.281Z,31.93
2022-12-26T16:27:48.918Z,35.57
2022-12-26T16:30:19.791Z,33.90
2022-12-26T16:32:48.291Z,34.30
2022-12-26T16:35:20.489Z,32.80
2022-12-26T16:37:49.338Z,31.63
2022-12-26T16:40:21.763Z,36.50
2022-12-26T16:43:00.760Z,37.07
2022-12-26T16:45:31.291Z,31.73
2022-12-26T16:47:59.843Z,32.10
2022-12-26T16:50:32.511Z,39.63
2022-12-26T16:53:10.691Z,35.27
2022-12-26T16:55:43.178Z,37.63
2022-12-26T16:58:19.501Z,33.83
2022-12-26T17:00:51.526Z,32.33
2022-12-26T17:03:28.193Z,38.33
2022-12-26T17:05:57.217Z,34.27
2022-12-26T17:08:26.081Z,47.77
2022-12-26T17:10:54.510Z,38.03
2022-12-26T17:13:27.572Z,40.77
2022-12-26T17:15:58.425Z,40.40
2022-12-26T17:18:46.199Z,45.70
2022-12-26T17:21:32.416Z,40.20
2022-12-26T17:24:26.056Z,37.03
2022-12-26T17:27:09.677Z,35.23
2022-12-26T17:29:51.000Z,37.30
2022-12-26T17:32:42.351Z,39.30
2022-12-26T17:35:16.065Z,41.77
2022-12-26T17:37:45.238Z,40.10
2022-12-26T17:40:28.202Z,44.07
2022-12-26T17:43:05.059Z,45.77
2022-12-26T17:45:34.242Z,41.10
2022-12-26T17:48:02.124Z,41.13
2022-12-26T17:50:32.562Z,43.50
2022-12-26T17:53:05.869Z,42.60
2022-12-26T17:55:34.558Z,41.63
2022-12-26T17:58:02.432Z,43.20
2022-12-26T18:00:30.784Z,40.13
2022-12-26T18:03:00.215Z,39.80
2022-12-26T18:05:28.230Z,40.77
2022-12-26T18:07:56.734Z,38.50
2022-12-26T18:10:28.651Z,39.87
2022-12-26T18:12:57.061Z,43.60
2022-12-26T18:15:26.977Z,36.10
2022-12-26T18:17:55.547Z,37.77
2022-12-26T18:20:28.796Z,37.80
2022-12-26T18:22:57.464Z,36.50
2022-12-26T18:25:27.819Z,37.00
2022-12-26T18:27:55.679Z,38.97
2022-12-26T18:30:26.557Z,36.40
2022-12-26T18:32:55.092Z,41.53
2022-12-26T18:35:24.375Z,38.60
2022-12-26T18:37:53.960Z,35.80
2022-12-26T18:40:31.897Z,39.00
2022-12-26T18:42:59.832Z,35.43
2022-12-26T18:45:28.147Z,39.27
2022-12-26T18:47:56.509Z,37.23
2022-12-26T18:50:26.436Z,34.87
2022-12-26T18:52:54.412Z,34.80
2022-12-26T18:55:23.042Z,38.80
2022-12-26T18:57:51.254Z,33.83
2022-12-26T19:00:20.581Z,39.30
2022-12-26T19:02:49.204Z,65.13
2022-12-26T19:05:19.079Z,75.63
2022-12-26T19:07:50.100Z,50.17
2022-12-26T19:10:19.504Z,41.97
2022-12-26T19:12:47.742Z,40.97
2022-12-26T19:15:16.474Z,37.87
2022-12-26T19:17:44.624Z,33.57
2022-12-26T19:20:19.744Z,38.97
2022-12-26T19:22:50.323Z,43.40
2022-12-26T19:25:19.543Z,35.87
2022-12-26T19:27:48.449Z,45.43
2022-12-26T19:30:17.661Z,45.30
2022-12-26T19:32:45.566Z,58.17
2022-12-26T19:35:14.964Z,48.00
2022-12-26T19:37:43.576Z,45.00
2022-12-26T19:40:18.391Z,42.87
2022-12-26T19:42:49.763Z,40.83
2022-12-26T19:45:18.026Z,42.07
2022-12-26T19:47:45.915Z,35.17
2022-12-26T19:50:13.928Z,39.50
2022-12-26T19:52:41.803Z,39.90
2022-12-26T19:55:13.463Z,41.23
2022-12-26T19:57:41.386Z,38.23
2022-12-26T20:00:11.642Z,37.17
2022-12-26T20:02:42.665Z,40.80
2022-12-26T20:05:11.220Z,35.70
2022-12-26T20:07:39.056Z,84.83
2022-12-26T20:10:07.658Z,68.50
2022-12-26T20:12:36.881Z,71.13
2022-12-26T20:15:05.207Z,46.40
2022-12-26T20:17:33.071Z,45.33
2022-12-26T20:20:01.024Z,38.37
2022-12-26T20:22:29.198Z,41.77
2022-12-26T20:24:57.043Z,46.00
2022-12-26T20:27:24.979Z,44.87
2022-12-26T20:29:54.238Z,46.23
2022-12-26T20:32:22.125Z,40.43
2022-12-26T20:34:50.104Z,42.10
2022-12-26T20:37:18.769Z,43.13
2022-12-26T20:39:46.709Z,44.67
2022-12-26T20:42:16.385Z,45.27
2022-12-26T20:44:44.568Z,40.47
2022-12-26T20:47:13.754Z,37.17
2022-12-26T20:49:41.882Z,38.37
2022-12-26T20:52:09.814Z,36.50
2022-12-26T20:54:37.679Z,29.83
2022-12-26T20:57:05.513Z,38.60
2022-12-26T20:59:33.365Z,40.90
2022-12-26T21:02:01.547Z,36.07
2022-12-26T21:04:30.954Z,33.87
2022-12-26T21:06:58.843Z,38.60
2022-12-26T21:09:26.990Z,34.10
2022-12-26T21:11:54.909Z,33.77
2022-12-26T21:14:25.323Z,37.10
2022-12-26T21:16:55.530Z,39.10
2022-12-26T21:19:24.957Z,38.27
2022-12-26T21:21:55.782Z,46.87
2022-12-26T21:24:25.867Z,38.00
2022-12-26T21:26:54.388Z,39.70
2022-12-26T21:29:26.118Z,42.40
2022-12-26T21:31:57.016Z,37.77
2022-12-26T21:34:27.801Z,41.00
2022-12-26T21:37:14.701Z,45.10
2022-12-26T21:39:43.659Z,46.40
2022-12-26T21:42:11.826Z,44.97
2022-12-26T21:44:40.400Z,42.67
2022-12-26T21:47:08.853Z,42.17
2022-12-26T21:49:36.954Z,47.30
2022-12-26T21:52:07.715Z,45.93
2022-12-26T21:54:53.307Z,41.57
2022-12-26T21:57:22.512Z,41.47
2022-12-26T21:59:59.865Z,43.73
2022-12-26T22:02:47.819Z,39.47
2022-12-26T22:05:16.745Z,42.87
2022-12-26T22:07:46.353Z,41.10
2022-12-26T22:10:35.387Z,41.10
2022-12-26T22:13:03.352Z,41.30
2022-12-26T22:15:48.890Z,40.40
2022-12-26T22:18:17.011Z,40.43
2022-12-26T22:20:45.923Z,40.40
2022-12-26T22:23:15.567Z,38.70
2022-12-26T22:25:43.677Z,40.97
2022-12-26T22:28:11.705Z,38.43
2022-12-26T22:30:39.599Z,39.57
2022-12-26T22:33:07.407Z,44.93
2022-12-26T22:35:35.330Z,39.70
2022-12-26T22:38:03.190Z,40.23
2022-12-26T22:40:32.490Z,47.67
2022-12-26T22:43:00.430Z,48.57
2022-12-26T22:45:28.311Z,42.80
2022-12-26T22:47:56.354Z,45.17
2022-12-26T22:50:24.292Z,42.67
2022-12-26T22:52:52.946Z,47.47
2022-12-26T22:55:20.846Z,46.57
2022-12-26T22:57:52.664Z,43.63
2022-12-26T23:00:21.106Z,36.77
2022-12-26T23:02:48.992Z,41.10
2022-12-26T23:05:17.390Z,36.80
2022-12-26T23:07:46.032Z,40.90
2022-12-26T23:10:19.455Z,41.23
2022-12-26T23:12:48.005Z,41.53
2022-12-26T23:15:19.708Z,35.03
2022-12-26T23:18:09.624Z,44.80
2022-12-26T23:20:56.388Z,41.63
2022-12-26T23:23:25.066Z,42.40
2022-12-26T23:25:52.982Z,42.27
2022-12-26T23:28:38.772Z,41.87
2022-12-26T23:31:08.567Z,38.20
2022-12-26T23:33:36.521Z,41.60
2022-12-26T23:36:04.758Z,40.23
2022-12-26T23:38:32.723Z,41.23
2022-12-26T23:41:00.590Z,33.00
2022-12-26T23:43:28.526Z,33.83
2022-12-26T23:45:56.375Z,37.43
2022-12-26T23:48:25.613Z,40.57
2022-12-26T23:51:02.114Z,36.00
2022-12-26T23:53:30.263Z,33.40
2022-12-26T23:55:58.379Z,37.73
2022-12-26T23:58:26.784Z,37.80
